createdAt,value
2023-01-11T00:00:39.857Z,555.00
2023-01-11T00:01:39.810Z,541.00
2023-01-11T00:02:39.885Z,551.00
2023-01-11T00:03:39.723Z,562.00
2023-01-11T00:04:39.726Z,555.00
2023-01-11T00:54:38.590Z,500.00
2023-01-11T00:55:39.510Z,500.00
2023-01-11T00:56:39.460Z,500.00
2023-01-11T00:57:39.409Z,500.00
2023-01-11T00:58:39.364Z,500.00
2023-01-11T00:59:39.468Z,500.00
2023-01-11T01:00:39.257Z,452.00
2023-01-11T01:01:39.251Z,420.00
2023-01-11T01:02:39.237Z,410.00
2023-01-11T01:03:39.122Z,413.00
2023-01-11T01:04:39.088Z,436.00
2023-01-11T01:05:39.070Z,459.00
2023-01-11T01:06:39.038Z,487.00
2023-01-11T01:07:38.955Z,500.00
2023-01-11T01:08:38.906Z,500.00
2023-01-11T01:09:38.864Z,503.00
2023-01-11T01:10:38.846Z,500.00
2023-01-11T01:11:38.773Z,500.00
2023-01-11T01:12:38.735Z,498.00
2023-01-11T01:13:38.691Z,500.00
2023-01-11T01:14:38.649Z,503.00
2023-01-11T01:15:38.635Z,500.00
2023-01-11T01:16:38.561Z,503.00
2023-01-11T01:17:38.521Z,504.00
2023-01-11T01:18:38.466Z,506.00
2023-01-11T01:19:38.451Z,504.00
2023-01-11T01:20:38.387Z,506.00
2023-01-11T01:21:38.342Z,502.00
2023-01-11T01:22:38.279Z,502.00
2023-01-11T01:23:38.227Z,502.00
2023-01-11T01:24:38.186Z,502.00
2023-01-11T01:25:38.140Z,502.00
2023-01-11T01:26:38.125Z,505.00
2023-01-11T01:27:38.153Z,513.00
2023-01-11T01:28:38.017Z,512.00
2023-01-11T01:29:37.971Z,505.00
2023-01-11T01:30:37.929Z,500.00
2023-01-11T01:31:37.885Z,509.00
2023-01-11T01:32:37.907Z,515.00
2023-01-11T01:33:37.799Z,504.00
2023-01-11T01:34:37.754Z,509.00
2023-01-11T01:35:37.719Z,507.00
2023-01-11T01:36:37.670Z,500.00
2023-01-11T01:37:37.627Z,502.00
2023-01-11T01:38:37.596Z,500.00
2023-01-11T01:39:37.539Z,507.00
2023-01-11T01:40:37.497Z,511.00
2023-01-11T01:41:37.457Z,508.00
2023-01-11T01:42:37.439Z,508.00
2023-01-11T01:43:37.378Z,502.00
2023-01-11T01:44:37.324Z,508.00
2023-01-11T01:45:37.278Z,507.00
2023-01-11T01:46:37.281Z,516.00
2023-01-11T01:47:37.193Z,507.00
2023-01-11T01:48:37.163Z,501.00
2023-01-11T01:49:37.120Z,509.00
2023-01-11T01:50:37.078Z,508.00
2023-01-11T01:51:37.046Z,508.00
2023-01-11T01:52:36.976Z,511.00
2023-01-11T01:53:36.932Z,502.00
2023-01-11T01:54:36.896Z,499.00
2023-01-11T01:55:36.848Z,508.00
2023-01-11T01:56:36.796Z,520.00
2023-01-11T01:57:36.747Z,524.00
2023-01-11T01:58:36.734Z,523.00
2023-01-11T01:59:36.648Z,525.00
2023-01-11T02:00:36.603Z,523.00
2023-01-11T02:01:36.614Z,528.00
2023-01-11T02:02:36.539Z,525.00
2023-01-11T02:03:36.466Z,521.00
2023-01-11T02:04:36.416Z,526.00
2023-01-11T02:05:36.371Z,529.00
2023-01-11T02:06:36.350Z,525.00
2023-01-11T02:07:36.280Z,523.00
2023-01-11T02:08:36.242Z,534.00
2023-01-11T02:09:36.220Z,521.00
2023-01-11T02:10:36.163Z,516.00
2023-01-11T02:11:36.116Z,521.00
2023-01-11T02:12:36.072Z,522.00
2023-01-11T02:13:36.026Z,527.00
2023-01-11T02:14:36.000Z,526.00
2023-01-11T02:15:35.928Z,525.00
2023-01-11T02:16:35.912Z,528.00
2023-01-11T02:17:35.846Z,516.00
2023-01-11T02:18:35.807Z,505.00
2023-01-11T02:19:35.760Z,514.00
2023-01-11T02:20:35.712Z,519.00
2023-01-11T02:21:35.672Z,519.00
2023-01-11T02:22:35.626Z,508.00
2023-01-11T02:23:35.567Z,519.00
2023-01-11T02:24:35.527Z,518.00
2023-01-11T02:25:35.479Z,524.00
2023-01-11T02:26:35.454Z,531.00
2023-01-11T02:27:35.409Z,506.00
2023-01-11T02:28:35.389Z,517.00
2023-01-11T02:29:35.299Z,515.00
2023-01-11T02:30:35.285Z,517.00
2023-01-11T02:31:35.353Z,518.00
2023-01-11T02:32:35.166Z,526.00
2023-01-11T02:33:35.131Z,521.00
2023-01-11T02:34:35.083Z,517.00
2023-01-11T02:35:35.049Z,525.00
2023-01-11T02:36:34.996Z,526.00
2023-01-11T02:37:34.997Z,528.00
2023-01-11T02:38:34.931Z,520.00
2023-01-11T02:39:34.879Z,524.00
2023-01-11T02:40:34.842Z,526.00
2023-01-11T02:41:34.789Z,523.00
2023-01-11T02:42:34.741Z,530.00
2023-01-11T02:43:34.705Z,524.00
2023-01-11T02:44:34.667Z,536.00
2023-01-11T02:45:34.620Z,531.00
2023-01-11T02:46:34.667Z,520.00
2023-01-11T02:47:34.539Z,523.00
2023-01-11T02:48:34.494Z,528.00
2023-01-11T02:49:34.461Z,529.00
2023-01-11T02:50:34.405Z,520.00
2023-01-11T02:51:34.358Z,516.00
2023-01-11T02:52:34.315Z,518.00
2023-01-11T02:53:34.272Z,524.00
2023-01-11T02:54:34.282Z,513.00
2023-01-11T02:55:34.187Z,508.00
2023-01-11T02:56:34.140Z,524.00
2023-01-11T02:57:34.101Z,514.00
2023-01-11T02:58:34.051Z,507.00
2023-01-11T02:59:34.016Z,515.00
2023-01-11T03:00:33.975Z,515.00
2023-01-11T03:01:33.942Z,508.00
2023-01-11T03:02:34.012Z,502.00
2023-01-11T03:03:33.840Z,515.00
2023-01-11T03:04:33.803Z,519.00
2023-01-11T03:05:33.752Z,509.00
2023-01-11T03:06:33.743Z,504.00
2023-01-11T03:07:33.675Z,508.00
2023-01-11T03:08:33.642Z,504.00
2023-01-11T03:09:33.623Z,504.00
2023-01-11T03:10:33.556Z,523.00
2023-01-11T03:11:33.505Z,520.00
2023-01-11T03:12:33.452Z,516.00
2023-01-11T03:13:33.411Z,524.00
2023-01-11T03:14:33.389Z,529.00
2023-01-11T03:15:33.308Z,529.00
2023-01-11T03:16:33.265Z,527.00
2023-01-11T03:17:33.221Z,534.00
2023-01-11T03:18:33.199Z,538.00
2023-01-11T03:19:33.225Z,521.00
2023-01-11T03:20:33.082Z,518.00
2023-01-11T03:21:33.049Z,520.00
2023-01-11T03:22:32.986Z,532.00
2023-01-11T03:23:32.944Z,517.00
2023-01-11T03:24:32.913Z,509.00
2023-01-11T03:25:32.856Z,516.00
2023-01-11T03:26:32.805Z,514.00
2023-01-11T03:27:32.757Z,509.00
2023-01-11T03:28:32.711Z,504.00
2023-01-11T03:29:32.664Z,513.00
2023-01-11T03:30:32.626Z,523.00
2023-01-11T03:31:32.645Z,523.00
2023-01-11T03:32:32.536Z,524.00
2023-01-11T03:33:32.507Z,511.00
2023-01-11T03:34:32.481Z,516.00
2023-01-11T03:35:32.408Z,509.00
2023-01-11T03:36:32.361Z,517.00
2023-01-11T03:37:32.314Z,516.00
2023-01-11T03:38:32.265Z,518.00
2023-01-11T03:39:32.227Z,515.00
2023-01-11T03:40:32.179Z,513.00
2023-01-11T03:41:32.126Z,504.00
2023-01-11T03:42:32.082Z,508.00
2023-01-11T03:43:32.036Z,517.00
2023-01-11T03:44:31.991Z,514.00
2023-01-11T03:45:32.055Z,507.00
2023-01-11T03:46:31.958Z,509.00
2023-01-11T03:47:31.862Z,516.00
2023-01-11T03:48:31.816Z,500.00
2023-01-11T03:49:31.761Z,509.00
2023-01-11T03:50:31.768Z,518.00
2023-01-11T03:51:31.667Z,521.00
2023-01-11T03:52:31.616Z,515.00
2023-01-11T03:53:31.559Z,521.00
2023-01-11T03:54:31.508Z,519.00
2023-01-11T03:55:31.460Z,524.00
2023-01-11T03:56:31.436Z,528.00
2023-01-11T03:57:31.363Z,516.00
2023-01-11T03:58:31.316Z,522.00
2023-01-11T03:59:31.265Z,527.00
2023-01-11T04:00:31.315Z,525.00
2023-01-11T04:01:31.181Z,522.00
2023-01-11T04:02:31.131Z,530.00
2023-01-11T04:03:31.079Z,533.00
2023-01-11T04:04:31.083Z,530.00
2023-01-11T04:05:31.038Z,526.00
2023-01-11T04:06:30.994Z,508.00
2023-01-11T04:07:30.898Z,521.00
2023-01-11T04:08:30.843Z,528.00
2023-01-11T04:09:30.797Z,535.00
2023-01-11T04:10:30.749Z,530.00
2023-01-11T04:11:30.704Z,523.00
2023-01-11T04:12:30.659Z,514.00
2023-01-11T04:13:30.606Z,519.00
2023-01-11T04:14:30.567Z,526.00
2023-01-11T04:15:30.538Z,524.00
2023-01-11T04:16:30.481Z,527.00
2023-01-11T04:17:30.417Z,531.00
2023-01-11T04:18:30.364Z,524.00
2023-01-11T04:19:30.311Z,515.00
2023-01-11T04:20:30.267Z,516.00
2023-01-11T04:21:30.220Z,515.00
2023-01-11T04:22:30.208Z,524.00
2023-01-11T04:23:30.129Z,531.00
2023-01-11T04:24:30.083Z,522.00
2023-01-11T04:25:30.030Z,522.00
2023-01-11T04:26:29.984Z,526.00
2023-01-11T04:27:30.260Z,528.00
2023-01-11T04:28:29.893Z,533.00
2023-01-11T04:29:29.875Z,530.00
2023-01-11T04:30:29.800Z,526.00
2023-01-11T04:31:29.812Z,534.00
2023-01-11T04:32:29.711Z,529.00
2023-01-11T04:33:29.665Z,526.00
2023-01-11T04:34:29.617Z,534.00
2023-01-11T04:35:29.576Z,529.00
2023-01-11T04:36:29.548Z,529.00
2023-01-11T04:37:29.481Z,531.00
2023-01-11T04:38:29.458Z,535.00
2023-01-11T04:39:29.376Z,538.00
2023-01-11T04:40:29.342Z,523.00
2023-01-11T04:41:29.281Z,513.00
2023-01-11T04:42:29.231Z,524.00
2023-01-11T04:43:29.190Z,527.00
2023-01-11T04:44:29.147Z,515.00
2023-01-11T04:45:29.195Z,524.00
2023-01-11T04:46:29.060Z,537.00
2023-01-11T04:47:28.997Z,531.00
2023-01-11T04:48:28.956Z,524.00
2023-01-11T04:49:28.909Z,520.00
2023-01-11T04:50:28.920Z,522.00
2023-01-11T04:51:28.857Z,526.00
2023-01-11T04:52:28.770Z,534.00
2023-01-11T04:53:28.736Z,533.00
2023-01-11T04:54:28.700Z,532.00
2023-01-11T04:55:28.637Z,526.00
2023-01-11T04:56:28.581Z,540.00
2023-01-11T04:57:28.529Z,534.00
2023-01-11T04:58:28.479Z,529.00
2023-01-11T04:59:28.434Z,537.00
2023-01-11T05:00:28.385Z,537.00
2023-01-11T05:01:28.443Z,532.00
2023-01-11T05:02:28.296Z,520.00
2023-01-11T05:03:28.243Z,527.00
2023-01-11T05:04:28.284Z,532.00
2023-01-11T05:05:28.145Z,518.00
2023-01-11T05:06:28.147Z,523.00
2023-01-11T05:07:28.050Z,538.00
2023-01-11T05:08:28.011Z,526.00
2023-01-11T05:09:27.939Z,527.00
2023-01-11T05:10:27.913Z,534.00
2023-01-11T05:11:27.832Z,531.00
2023-01-11T05:12:27.787Z,532.00
2023-01-11T05:13:27.793Z,537.00
2023-01-11T05:14:27.692Z,524.00
2023-01-11T05:15:27.639Z,524.00
2023-01-11T05:16:27.679Z,529.00
2023-01-11T05:17:27.540Z,529.00
2023-01-11T05:18:27.495Z,528.00
2023-01-11T05:19:27.440Z,521.00
2023-01-11T05:20:27.386Z,508.00
2023-01-11T05:21:27.339Z,504.00
2023-01-11T05:22:27.285Z,506.00
2023-01-11T05:23:27.237Z,520.00
2023-01-11T05:24:27.203Z,532.00
2023-01-11T05:25:27.156Z,540.00
2023-01-11T05:26:27.119Z,533.00
2023-01-11T05:27:27.047Z,538.00
2023-01-11T05:28:26.997Z,534.00
2023-01-11T05:29:26.960Z,525.00
2023-01-11T05:30:26.911Z,528.00
2023-01-11T05:31:26.910Z,530.00
2023-01-11T05:32:26.820Z,530.00
2023-01-11T05:33:26.773Z,531.00
2023-01-11T05:34:26.726Z,521.00
2023-01-11T05:35:26.680Z,535.00
2023-01-11T05:36:26.624Z,532.00
2023-01-11T05:37:26.586Z,524.00
2023-01-11T05:38:26.558Z,533.00
2023-01-11T05:39:26.478Z,531.00
2023-01-11T05:40:26.440Z,528.00
2023-01-11T05:41:26.388Z,521.00
2023-01-11T05:42:26.354Z,533.00
2023-01-11T05:43:26.281Z,535.00
2023-01-11T05:44:26.238Z,527.00
2023-01-11T05:45:26.191Z,524.00
2023-01-11T05:46:26.188Z,505.00
2023-01-11T05:47:26.093Z,522.00
2023-01-11T05:48:26.054Z,523.00
2023-01-11T05:49:26.005Z,525.00
2023-01-11T05:50:25.954Z,521.00
2023-01-11T05:51:25.906Z,514.00
2023-01-11T05:52:25.859Z,523.00
2023-01-11T05:53:25.817Z,524.00
2023-01-11T05:54:25.771Z,528.00
2023-01-11T05:55:25.759Z,529.00
2023-01-11T05:56:25.682Z,536.00
2023-01-11T05:57:25.641Z,529.00
2023-01-11T05:58:25.619Z,531.00
2023-01-11T05:59:25.539Z,532.00
2023-01-11T06:00:25.492Z,534.00
2023-01-11T06:01:25.448Z,529.00
2023-01-11T06:02:25.517Z,519.00
2023-01-11T06:03:25.345Z,512.00
2023-01-11T06:04:25.289Z,530.00
2023-01-11T06:05:25.258Z,516.00
2023-01-11T06:06:25.276Z,526.00
2023-01-11T06:07:25.142Z,519.00
2023-01-11T06:08:25.095Z,517.00
2023-01-11T06:09:25.077Z,515.00
2023-01-11T06:10:25.002Z,528.00
2023-01-11T06:11:24.947Z,520.00
2023-01-11T06:12:24.892Z,533.00
2023-01-11T06:13:24.857Z,527.00
2023-01-11T06:14:24.828Z,517.00
2023-01-11T06:15:24.777Z,529.00
2023-01-11T06:16:24.767Z,526.00
2023-01-11T06:17:24.804Z,530.00
2023-01-11T06:18:24.827Z,524.00
2023-01-11T06:19:24.572Z,531.00
2023-01-11T06:20:25.540Z,530.00
2023-01-11T06:21:24.486Z,530.00
2023-01-11T06:22:24.771Z,529.00
2023-01-11T06:23:24.392Z,518.00
2023-01-11T06:24:24.355Z,517.00
2023-01-11T06:25:24.304Z,528.00
2023-01-11T06:26:24.294Z,529.00
2023-01-11T06:27:24.218Z,514.00
2023-01-11T06:28:24.174Z,509.00
2023-01-11T06:29:24.117Z,510.00
2023-01-11T06:30:24.109Z,512.00
2023-01-11T06:31:24.110Z,508.00
2023-01-11T06:32:24.005Z,502.00
2023-01-11T06:33:24.293Z,502.00
2023-01-11T06:34:23.877Z,500.00
2023-01-11T06:35:24.280Z,522.00
2023-01-11T06:36:23.788Z,528.00
2023-01-11T06:37:23.721Z,522.00
2023-01-11T06:38:23.775Z,514.00
2023-01-11T06:39:23.627Z,526.00
2023-01-11T06:40:23.574Z,529.00
2023-01-11T06:41:23.933Z,525.00
2023-01-11T06:42:24.007Z,551.00
2023-01-11T06:43:23.416Z,545.00
2023-01-11T06:44:23.392Z,556.00
2023-01-11T06:45:23.319Z,552.00
2023-01-11T06:46:23.893Z,542.00
2023-01-11T06:47:23.546Z,552.00
2023-01-11T06:48:23.633Z,540.00
2023-01-11T06:49:23.488Z,543.00
2023-01-11T06:50:23.730Z,540.00
2023-01-11T06:51:23.215Z,549.00
2023-01-11T06:52:24.490Z,590.00
2023-01-11T06:53:23.386Z,610.00
2023-01-11T06:54:22.897Z,530.00
2023-01-11T06:55:23.373Z,525.00
2023-01-11T06:56:22.859Z,564.00
2023-01-11T06:57:22.880Z,547.00
2023-01-11T06:58:22.897Z,506.00
2023-01-11T06:59:23.712Z,511.00
2023-01-11T07:00:23.948Z,506.00
2023-01-11T07:01:30.553Z,500.00
2023-01-11T07:02:23.044Z,500.00
2023-01-11T07:03:23.097Z,459.00
2023-01-11T07:04:23.186Z,469.00
2023-01-11T07:05:23.656Z,445.00
2023-01-11T07:06:23.371Z,439.00
2023-01-11T07:07:23.475Z,486.00
2023-01-11T07:08:23.241Z,506.00
2023-01-11T07:09:23.195Z,513.00
2023-01-11T07:10:23.178Z,529.00
2023-01-11T07:11:23.175Z,554.00
2023-01-11T07:12:23.297Z,567.00
2023-01-11T07:13:23.129Z,590.00
2023-01-11T07:14:23.108Z,612.00
2023-01-11T07:15:23.073Z,627.00
2023-01-11T07:16:23.423Z,639.00
2023-01-11T07:17:23.027Z,644.00
2023-01-11T07:18:22.962Z,659.00
2023-01-11T07:19:22.951Z,678.00
2023-01-11T07:20:22.897Z,705.00
2023-01-11T07:21:23.299Z,725.00
2023-01-11T07:22:23.291Z,776.00
2023-01-11T07:23:22.766Z,786.00
2023-01-11T07:24:22.730Z,841.00
2023-01-11T07:25:22.879Z,860.00
2023-01-11T07:26:22.743Z,844.00
2023-01-11T07:27:22.609Z,882.00
2023-01-11T07:28:22.807Z,894.00
2023-01-11T07:29:22.510Z,934.00
2023-01-11T07:30:22.481Z,933.00
2023-01-11T07:31:22.491Z,970.00
2023-01-11T07:32:22.371Z,959.00
2023-01-11T07:33:22.855Z,977.00
2023-01-11T07:34:22.347Z,1006.00
2023-01-11T07:35:22.225Z,1051.00
2023-01-11T07:36:22.183Z,1051.00
2023-01-11T07:37:29.105Z,1060.00
2023-01-11T07:38:22.127Z,1063.00
2023-01-11T07:39:29.108Z,1067.00
2023-01-11T07:40:25.498Z,1063.00
2023-01-11T07:41:21.958Z,1064.00
2023-01-11T07:42:21.902Z,1073.00
2023-01-11T07:43:21.890Z,1092.00
2023-01-11T07:44:25.052Z,1112.00
2023-01-11T07:45:21.964Z,1064.00
2023-01-11T07:46:25.001Z,1081.00
2023-01-11T07:47:21.647Z,1067.00
2023-01-11T07:48:21.656Z,1087.00
2023-01-11T07:49:21.980Z,1117.00
2023-01-11T07:50:21.802Z,1163.00
2023-01-11T07:51:21.444Z,1206.00
2023-01-11T07:52:21.394Z,1190.00
2023-01-11T07:53:21.811Z,1182.00
2023-01-11T07:54:21.297Z,1150.00
2023-01-11T07:55:21.306Z,1136.00
2023-01-11T07:56:23.469Z,1136.00
2023-01-11T07:57:21.320Z,1138.00
2023-01-11T07:58:21.097Z,1138.00
2023-01-11T07:59:21.052Z,1126.00
2023-01-11T08:00:20.996Z,1110.00
2023-01-11T08:01:20.949Z,1107.00
2023-01-11T08:02:21.390Z,1059.00
2023-01-11T08:03:21.083Z,1076.00
2023-01-11T08:04:20.810Z,1066.00
2023-01-11T08:05:20.789Z,1072.00
2023-01-11T08:06:20.724Z,1076.00
2023-01-11T08:07:20.696Z,1085.00
2023-01-11T08:08:20.813Z,1058.00
2023-01-11T08:09:20.571Z,1104.00
2023-01-11T08:10:20.545Z,1100.00
2023-01-11T08:11:20.471Z,1080.00
2023-01-11T08:12:20.812Z,1072.00
2023-01-11T08:13:20.398Z,1060.00
2023-01-11T08:14:20.350Z,1088.00
2023-01-11T08:15:22.853Z,1099.00
2023-01-11T08:16:20.628Z,1100.00
2023-01-11T08:17:20.320Z,1105.00
2023-01-11T08:18:20.174Z,1088.00
2023-01-11T08:19:20.131Z,1108.00
2023-01-11T08:20:20.077Z,1139.00
2023-01-11T08:21:20.345Z,1100.00
2023-01-11T08:22:19.991Z,1094.00
2023-01-11T08:23:19.945Z,1067.00
2023-01-11T08:24:19.900Z,1110.00
2023-01-11T08:25:19.849Z,1074.00
2023-01-11T08:26:19.847Z,1099.00
2023-01-11T08:27:19.828Z,1125.00
2023-01-11T08:28:19.710Z,1078.00
2023-01-11T08:29:19.716Z,1055.00
2023-01-11T08:30:19.821Z,1045.00
2023-01-11T08:31:19.625Z,1109.00
2023-01-11T08:32:19.829Z,1153.00
2023-01-11T08:33:19.480Z,1117.00
2023-01-11T08:34:19.466Z,1130.00
2023-01-11T08:35:19.395Z,1117.00
2023-01-11T08:36:19.346Z,1100.00
2023-01-11T08:37:19.375Z,1102.00
2023-01-11T08:38:19.264Z,1093.00
2023-01-11T08:39:19.219Z,1099.00
2023-01-11T08:40:19.793Z,1099.00
2023-01-11T08:41:19.109Z,1124.00
2023-01-11T08:42:19.386Z,1116.00
2023-01-11T08:43:19.027Z,1122.00
2023-01-11T08:44:25.455Z,1138.00
2023-01-11T08:45:18.968Z,1140.00
2023-01-11T08:46:19.383Z,1145.00
2023-01-11T08:47:18.838Z,1152.00
2023-01-11T08:48:18.805Z,1151.00
2023-01-11T08:49:18.760Z,1173.00
2023-01-11T08:50:19.329Z,1184.00
2023-01-11T08:51:18.831Z,1229.00
2023-01-11T08:52:18.616Z,1195.00
2023-01-11T08:53:19.854Z,1191.00
2023-01-11T08:54:18.538Z,1172.00
2023-01-11T08:55:18.471Z,1184.00
2023-01-11T08:56:18.406Z,1205.00
2023-01-11T08:57:18.358Z,1193.00
2023-01-11T08:58:20.584Z,1172.00
2023-01-11T08:59:18.245Z,1139.00
2023-01-11T09:00:18.200Z,1188.00
2023-01-11T09:01:18.157Z,1162.00
2023-01-11T09:02:18.336Z,1111.00
2023-01-11T09:03:18.065Z,1115.00
2023-01-11T09:04:24.814Z,1156.00
2023-01-11T09:05:18.443Z,1157.00
2023-01-11T09:06:17.946Z,1156.00
2023-01-11T09:07:18.335Z,1159.00
2023-01-11T09:08:17.838Z,1149.00
2023-01-11T09:09:17.816Z,1110.00
2023-01-11T09:10:17.739Z,1123.00
2023-01-11T09:11:17.705Z,1131.00
2023-01-11T09:12:17.712Z,1122.00
2023-01-11T09:13:17.934Z,1146.00
2023-01-11T09:14:17.599Z,1139.00
2023-01-11T09:15:17.561Z,1177.00
2023-01-11T09:16:17.562Z,1189.00
2023-01-11T09:17:17.870Z,1111.00
2023-01-11T09:18:17.430Z,1122.00
2023-01-11T09:19:17.464Z,1071.00
2023-01-11T09:20:17.315Z,1112.00
2023-01-11T09:21:17.260Z,1107.00
2023-01-11T09:22:17.224Z,1102.00
2023-01-11T09:23:17.171Z,1161.00
2023-01-11T09:24:17.134Z,1196.00
2023-01-11T09:25:17.110Z,1188.00
2023-01-11T09:26:17.048Z,1212.00
2023-01-11T09:27:17.527Z,1212.00
2023-01-11T09:28:16.958Z,1202.00
2023-01-11T09:29:16.979Z,1184.00
2023-01-11T09:30:16.887Z,1191.00
2023-01-11T09:31:17.868Z,1171.00
2023-01-11T09:32:16.810Z,1181.00
2023-01-11T09:33:16.869Z,1181.00
2023-01-11T09:34:16.686Z,1160.00
2023-01-11T09:35:16.633Z,1162.00
2023-01-11T09:36:16.575Z,1147.00
2023-01-11T09:37:16.526Z,1104.00
2023-01-11T09:38:16.851Z,1113.00
2023-01-11T09:39:16.460Z,1146.00
2023-01-11T09:40:16.431Z,1142.00
2023-01-11T09:41:16.370Z,1149.00
2023-01-11T09:42:16.296Z,1147.00
2023-01-11T09:43:16.354Z,1158.00
2023-01-11T09:44:16.316Z,1127.00
2023-01-11T09:45:16.154Z,1130.00
2023-01-11T09:46:16.415Z,1145.00
2023-01-11T09:47:16.351Z,1133.00
2023-01-11T09:48:16.029Z,1142.00
2023-01-11T09:49:15.994Z,1067.00
2023-01-11T09:50:15.931Z,1105.00
2023-01-11T09:51:15.960Z,1115.00
2023-01-11T09:52:16.357Z,1061.00
2023-01-11T09:53:15.822Z,1076.00
2023-01-11T09:54:15.790Z,1108.00
2023-01-11T09:55:15.860Z,1127.00
2023-01-11T09:56:15.707Z,1112.00
2023-01-11T09:57:15.741Z,1061.00
2023-01-11T09:58:15.609Z,1060.00
2023-01-11T09:59:15.567Z,1100.00
2023-01-11T10:00:15.866Z,1106.00
2023-01-11T10:01:15.599Z,1106.00
2023-01-11T10:02:16.463Z,1069.00
2023-01-11T10:03:15.391Z,1076.00
2023-01-11T10:04:15.410Z,1072.00
2023-01-11T10:05:16.445Z,1076.00
2023-01-11T10:06:15.286Z,1072.00
2023-01-11T10:07:15.220Z,1069.00
2023-01-11T10:18:22.927Z,1062.00
2023-01-11T10:18:25.375Z,1064.00
2023-01-11T10:18:26.562Z,1062.00
2023-01-11T10:18:30.652Z,1064.00
2023-01-11T10:18:32.991Z,1062.00
2023-01-11T10:19:42.131Z,1064.00
2023-01-11T10:20:14.734Z,1064.00
2023-01-11T10:21:14.624Z,1070.00
2023-01-11T10:22:14.588Z,1070.00
2023-01-11T10:23:14.893Z,1069.00
2023-01-11T10:24:14.501Z,1052.00
2023-01-11T10:25:14.460Z,1050.00
2023-01-11T10:26:14.421Z,1032.00
2023-01-11T10:27:14.446Z,1025.00
2023-01-11T10:28:14.372Z,1008.00
2023-01-11T10:29:14.314Z,987.00
2023-01-11T10:30:14.236Z,1005.00
2023-01-11T10:31:14.194Z,977.00
2023-01-11T10:32:14.372Z,961.00
2023-01-11T10:33:14.379Z,672.00
2023-01-11T10:34:14.052Z,994.00
2023-01-11T10:35:14.377Z,981.00
2023-01-11T10:36:14.172Z,1024.00
2023-01-11T10:37:13.961Z,980.00
2023-01-11T10:38:13.941Z,935.00
2023-01-11T10:39:13.943Z,900.00
2023-01-11T10:40:14.390Z,893.00
2023-01-11T10:41:13.872Z,873.00
2023-01-11T10:42:13.840Z,910.00
2023-01-11T10:43:13.808Z,904.00
2023-01-11T10:44:13.787Z,875.00
2023-01-11T10:45:13.966Z,897.00
2023-01-11T10:46:13.876Z,910.00
2023-01-11T10:47:13.670Z,947.00
2023-01-11T10:48:13.655Z,983.00
2023-01-11T10:49:13.590Z,1033.00
2023-01-11T10:50:13.543Z,1040.00
2023-01-11T10:51:13.923Z,1025.00
2023-01-11T10:52:13.460Z,1015.00
2023-01-11T10:53:13.418Z,1018.00
2023-01-11T10:54:16.616Z,1012.00
2023-01-11T10:55:13.321Z,1013.00
2023-01-11T10:56:13.263Z,1017.00
2023-01-11T10:57:13.384Z,1025.00
2023-01-11T10:58:13.183Z,1048.00
2023-01-11T10:59:13.102Z,1101.00
2023-01-11T11:00:13.384Z,1129.00
2023-01-11T11:01:14.008Z,1124.00
2023-01-11T11:02:13.052Z,1135.00
2023-01-11T11:03:12.897Z,1140.00
2023-01-11T11:04:12.891Z,1147.00
2023-01-11T11:05:12.784Z,1154.00
2023-01-11T11:06:12.748Z,1173.00
2023-01-11T11:07:12.690Z,1193.00
2023-01-11T11:08:14.677Z,1209.00
2023-01-11T11:09:12.892Z,1238.00
2023-01-11T11:10:12.526Z,1275.00
2023-01-11T11:11:12.474Z,1264.00
2023-01-11T11:12:12.410Z,1265.00
2023-01-11T11:13:12.356Z,1281.00
2023-01-11T11:14:12.396Z,1284.00
2023-01-11T11:15:12.256Z,1269.00
2023-01-11T11:16:12.372Z,1277.00
2023-01-11T11:17:12.150Z,1320.00
2023-01-11T11:18:12.387Z,1295.00
2023-01-11T11:19:12.008Z,1310.00
2023-01-11T11:20:11.957Z,1293.00
2023-01-11T11:21:11.898Z,1325.00
2023-01-11T11:22:11.837Z,1322.00
2023-01-11T11:23:11.917Z,1325.00
2023-01-11T11:24:11.891Z,1325.00
2023-01-11T11:25:11.670Z,1346.00
2023-01-11T11:26:11.610Z,1351.00
2023-01-11T11:27:11.597Z,1295.00
2023-01-11T11:28:11.507Z,1145.00
2023-01-11T11:29:11.911Z,1144.00
2023-01-11T11:30:11.400Z,1313.00
2023-01-11T11:31:11.514Z,1313.00
2023-01-11T11:32:11.285Z,1305.00
2023-01-11T11:33:11.267Z,1316.00
2023-01-11T11:34:11.170Z,1365.00
2023-01-11T11:35:11.394Z,1327.00
2023-01-11T11:36:11.065Z,1332.00
2023-01-11T11:37:11.011Z,1360.00
2023-01-11T11:38:10.948Z,1361.00
2023-01-11T11:39:10.898Z,1347.00
2023-01-11T11:40:10.898Z,1355.00
2023-01-11T11:41:10.774Z,1357.00
2023-01-11T11:42:10.732Z,1374.00
2023-01-11T11:43:10.904Z,1385.00
2023-01-11T11:44:10.600Z,1383.00
2023-01-11T11:45:10.543Z,1399.00
2023-01-11T11:46:10.987Z,1395.00
2023-01-11T11:47:10.444Z,1383.00
2023-01-11T11:48:10.397Z,1386.00
2023-01-11T11:49:10.359Z,1391.00
2023-01-11T11:50:10.261Z,1400.00
2023-01-11T11:51:10.211Z,1415.00
2023-01-11T11:52:10.155Z,1425.00
2023-01-11T11:53:10.429Z,1438.00
2023-01-11T11:54:10.040Z,1431.00
2023-01-11T11:55:09.993Z,1454.00
2023-01-11T11:56:09.934Z,1453.00
2023-01-11T11:57:09.880Z,1460.00
2023-01-11T11:58:09.904Z,1469.00
2023-01-11T11:59:09.803Z,1478.00
2023-01-11T12:00:09.905Z,1511.00
2023-01-11T12:01:09.655Z,1501.00
2023-01-11T12:02:09.648Z,1498.00
2023-01-11T12:03:09.539Z,1276.00
2023-01-11T12:04:09.488Z,1159.00
2023-01-11T12:05:09.552Z,1189.00
2023-01-11T12:06:09.376Z,1335.00
2023-01-11T12:07:09.322Z,1293.00
2023-01-11T12:08:09.272Z,1303.00
2023-01-11T12:09:09.228Z,1278.00
2023-01-11T12:10:09.153Z,1293.00
2023-01-11T12:11:09.422Z,1276.00
2023-01-11T12:12:09.044Z,1259.00
2023-01-11T12:13:08.994Z,1244.00
2023-01-11T12:14:08.940Z,1243.00
2023-01-11T12:15:08.880Z,1257.00
2023-01-11T12:16:08.913Z,1245.00
2023-01-11T12:17:08.912Z,1217.00
2023-01-11T12:18:08.730Z,1263.00
2023-01-11T12:19:08.681Z,1277.00
2023-01-11T12:20:08.626Z,1282.00
2023-01-11T12:21:08.934Z,1316.00
2023-01-11T12:22:08.521Z,1293.00
2023-01-11T12:23:08.477Z,1261.00
2023-01-11T12:24:08.441Z,1276.00
2023-01-11T12:25:08.382Z,1290.00
2023-01-11T12:26:08.315Z,1293.00
2023-01-11T12:27:08.322Z,1289.00
2023-01-11T12:28:08.197Z,1303.00
2023-01-11T12:29:08.151Z,1274.00
2023-01-11T12:30:08.110Z,1268.00
2023-01-11T12:31:08.081Z,1279.00
2023-01-11T12:32:07.981Z,1287.00
2023-01-11T12:33:07.937Z,1256.00
2023-01-11T12:34:07.879Z,1211.00
2023-01-11T12:35:07.831Z,1225.00
2023-01-11T12:36:07.786Z,1221.00
2023-01-11T12:37:07.751Z,1241.00
2023-01-11T12:38:07.688Z,1250.00
2023-01-11T12:39:07.625Z,1257.00
2023-01-11T12:40:07.571Z,1274.00
2023-01-11T12:41:08.711Z,1259.00
2023-01-11T12:42:07.458Z,1281.00
2023-01-11T12:43:07.423Z,1285.00
2023-01-11T12:44:07.362Z,1261.00
2023-01-11T12:45:07.303Z,1193.00
2023-01-11T12:46:07.312Z,1200.00
2023-01-11T12:47:07.178Z,1223.00
2023-01-11T12:48:07.436Z,1246.00
2023-01-11T12:49:07.084Z,1216.00
2023-01-11T12:50:07.049Z,1262.00
2023-01-11T12:51:06.970Z,1220.00
2023-01-11T12:52:06.926Z,1264.00
2023-01-11T12:53:06.898Z,1245.00
2023-01-11T12:54:06.821Z,1242.00
2023-01-11T12:55:06.756Z,1238.00
2023-01-11T12:56:06.706Z,1228.00
2023-01-11T12:57:06.648Z,1233.00
2023-01-11T12:58:06.595Z,1243.00
2023-01-11T12:59:06.925Z,1245.00
2023-01-11T13:00:06.806Z,1203.00
2023-01-11T13:01:06.529Z,1233.00
2023-01-11T13:02:06.475Z,1226.00
2023-01-11T13:03:06.431Z,1185.00
2023-01-11T13:04:06.305Z,1203.00
2023-01-11T13:05:06.240Z,1211.00
2023-01-11T13:06:06.179Z,1197.00
2023-01-11T13:07:06.163Z,1191.00
2023-01-11T13:08:06.064Z,1207.00
2023-01-11T13:09:06.462Z,1152.00
2023-01-11T13:10:05.961Z,1179.00
2023-01-11T13:11:05.901Z,1208.00
2023-01-11T13:12:05.935Z,1125.00
2023-01-11T13:13:05.794Z,1162.00